Time;durP1;ratioP1;P1;durP2;ratioP2;P2;SDS_P1;SDS_P2;PMS_P1;PMS_P2;Temp;Humidity;BMP_temperature;BMP_pressure;BME280_temperature;BME280_humidity;BME280_pressure;Samples;Min_cycle;Max_cycle;Signal;HPM_P1;HPM_P2
2022/05/18 00:00:27;;;;;;;0.98;0.82;;;;;;;;;;5073982;28;20037;-59
2022/05/18 00:02:57;;;;;;;0.90;0.82;;;;;;;;;;5039217;28;20033;-61
2022/05/18 00:05:22;;;;;;;0.68;0.68;;;;;;;;;;5039462;28;20583;-60
2022/05/18 00:07:48;;;;;;;0.10;0.10;;;;;;;;;;5073975;28;20099;-59
2022/05/18 00:10:13;;;;;;;2.05;2.00;;;;;;;;;;5073865;28;20061;-59
2022/05/18 00:12:43;;;;;;;0.10;0.10;;;;;;;;;;5072373;28;20082;-59
2022/05/18 00:15:09;;;;;;;0.20;0.20;;;;;;;;;;5055933;28;20123;-59
2022/05/18 00:17:35;;;;;;;0.20;0.20;;;;;;;;;;5073594;28;20444;-59
2022/05/18 00:20:01;;;;;;;0.10;0.10;;;;;;;;;;5039013;28;20032;-59
2022/05/18 00:22:26;;;;;;;0.20;0.20;;;;;;;;;;5055739;28;20048;-60
2022/05/18 00:24:52;;;;;;;0.20;0.20;;;;;;;;;;5073599;28;20039;-59
2022/05/18 00:27:17;;;;;;;4.65;2.08;;;;;;;;;;5073871;28;20032;-59
2022/05/18 00:29:44;;;;;;;0.20;0.20;;;;;;;;;;5073561;28;20032;-59
2022/05/18 00:32:11;;;;;;;0.10;0.10;;;;;;;;;;5055918;28;20472;-59
2022/05/18 00:34:37;;;;;;;0.13;0.13;;;;;;;;;;5038970;28;20097;-59
2022/05/18 00:37:02;;;;;;;0.10;0.10;;;;;;;;;;5073309;28;20519;-59
2022/05/18 00:39:28;;;;;;;0.13;0.13;;;;;;;;;;5073422;28;20064;-59
2022/05/18 00:41:53;;;;;;;0.17;0.17;;;;;;;;;;5071998;28;20388;-60
2022/05/18 00:44:21;;;;;;;0.10;0.10;;;;;;;;;;5073296;28;20123;-59
2022/05/18 00:46:47;;;;;;;0.10;0.10;;;;;;;;;;5038562;28;20098;-59
2022/05/18 00:49:12;;;;;;;0.10;0.10;;;;;;;;;;5073039;28;20119;-59
2022/05/18 00:51:40;;;;;;;0.10;0.10;;;;;;;;;;5055164;28;20036;-59
2022/05/18 00:54:08;;;;;;;0.10;0.10;;;;;;;;;;5038515;28;20041;-59
2022/05/18 00:56:38;;;;;;;0.10;0.10;;;;;;;;;;5072892;28;20504;-59
2022/05/18 00:59:08;;;;;;;0.10;0.10;;;;;;;;;;5038543;28;20121;-59
2022/05/18 01:01:33;;;;;;;;;;;;;;;;;;5038695;28;20118;-59
2022/05/18 01:04:00;;;;;;;0.10;0.10;;;;;;;;;;5073098;28;19978;-59
2022/05/18 01:06:35;;;;;;;0.20;0.20;;;;;;;;;;5038651;28;20040;-59
2022/05/18 01:09:00;;;;;;;0.10;0.10;;;;;;;;;;5038481;28;20048;-59
2022/05/18 01:11:26;;;;;;;0.20;0.20;;;;;;;;;;5072901;28;20033;-60
2022/05/18 01:13:52;;;;;;;0.10;0.10;;;;;;;;;;5038585;28;20048;-59
2022/05/18 01:16:18;;;;;;;0.10;0.10;;;;;;;;;;5054652;28;20115;-59
2022/05/18 01:18:43;;;;;;;0.20;0.20;;;;;;;;;;5054851;28;20438;-59
2022/05/18 01:21:09;;;;;;;0.10;0.10;;;;;;;;;;5054750;28;20047;-59
2022/05/18 01:23:44;;;;;;;0.22;0.22;;;;;;;;;;5072770;28;20035;-59
2022/05/18 01:26:13;;;;;;;0.10;0.10;;;;;;;;;;5072929;28;20036;-59
2022/05/18 01:28:40;;;;;;;0.20;0.20;;;;;;;;;;5071946;28;20037;-60
2022/05/18 01:31:06;;;;;;;0.20;0.20;;;;;;;;;;5038074;28;20029;-59
2022/05/18 01:33:32;;;;;;;0.20;0.20;;;;;;;;;;5038031;28;20032;-60
2022/05/18 01:35:58;;;;;;;0.20;0.20;;;;;;;;;;5054541;28;20511;-59
2022/05/18 01:38:24;;;;;;;0.10;0.10;;;;;;;;;;5054609;28;20072;-59
2022/05/18 01:41:08;;;;;;;0.20;0.20;;;;;;;;;;5072510;28;20067;-60
2022/05/18 01:43:54;;;;;;;0.10;0.10;;;;;;;;;;5037861;28;20039;-59
2022/05/18 01:46:20;;;;;;;0.13;0.13;;;;;;;;;;5054899;28;20048;-59
2022/05/18 01:48:48;;;;;;;0.20;0.20;;;;;;;;;;5054398;28;20032;-61
2022/05/18 01:51:18;;;;;;;0.20;0.20;;;;;;;;;;5054338;28;20472;-60
2022/05/18 01:53:43;;;;;;;0.10;0.10;;;;;;;;;;5054190;28;20059;-61
2022/05/18 01:56:09;;;;;;;0.20;0.20;;;;;;;;;;5054364;28;20060;-60
2022/05/18 01:58:34;;;;;;;0.20;0.20;;;;;;;;;;5072221;28;20542;-60
2022/05/18 02:01:01;;;;;;;0.10;0.10;;;;;;;;;;5054123;28;20472;-60
2022/05/18 02:03:26;;;;;;;0.20;0.20;;;;;;;;;;5072790;28;20016;-60
2022/05/18 02:05:53;;;;;;;0.10;0.10;;;;;;;;;;5075741;28;20511;-62
2022/05/18 02:08:21;;;;;;;0.13;0.13;;;;;;;;;;5057512;28;20033;-60
2022/05/18 02:10:46;;;;;;;0.10;0.10;;;;;;;;;;5075865;28;20112;-60
2022/05/18 02:13:12;;;;;;;0.10;0.10;;;;;;;;;;5074989;28;20178;-60
2022/05/18 02:15:38;;;;;;;0.10;0.10;;;;;;;;;;5075744;28;20045;-59
2022/05/18 02:18:03;;;;;;;0.10;0.10;;;;;;;;;;5075691;28;20023;-59
2022/05/18 02:20:29;;;;;;;0.10;0.10;;;;;;;;;;5058004;28;20044;-60
2022/05/18 02:22:56;;;;;;;0.10;0.10;;;;;;;;;;5057526;28;20036;-60
2022/05/18 02:25:21;;;;;;;0.20;0.20;;;;;;;;;;5057619;28;20040;-59
2022/05/18 02:27:47;;;;;;;0.20;0.20;;;;;;;;;;5075791;28;20024;-59
2022/05/18 02:30:15;;;;;;;0.20;0.20;;;;;;;;;;5057412;28;20052;-60
2022/05/18 02:32:42;;;;;;;0.10;0.10;;;;;;;;;;5075095;28;20048;-60
2022/05/18 02:35:08;;;;;;;0.20;0.20;;;;;;;;;;5075282;28;20036;-59
2022/05/18 02:37:34;;;;;;;0.10;0.10;;;;;;;;;;5040608;28;20035;-59
2022/05/18 02:40:00;;;;;;;0.10;0.10;;;;;;;;;;5040513;28;20127;-59
2022/05/18 02:42:26;;;;;;;0.10;0.10;;;;;;;;;;5040696;28;20040;-60
2022/05/18 02:44:52;;;;;;;0.10;0.10;;;;;;;;;;5040728;28;20036;-60
2022/05/18 02:47:18;;;;;;;0.10;0.10;;;;;;;;;;5074993;28;20032;-59
2022/05/18 02:49:44;;;;;;;0.10;0.10;;;;;;;;;;5057164;28;20032;-60
2022/05/18 02:52:10;;;;;;;0.10;0.10;;;;;;;;;;5075014;28;20024;-60
2022/05/18 02:57:19;;;;;;;0.10;0.10;;;;;;;;;;5075075;28;20033;-60
2022/05/18 02:59:45;;;;;;;0.10;0.10;;;;;;;;;;5075057;28;20043;-60
2022/05/18 03:02:11;;;;;;;0.10;0.10;;;;;;;;;;5071991;28;20033;-61
2022/05/18 03:04:37;;;;;;;0.20;0.20;;;;;;;;;;5069147;28;20499;-60
2022/05/18 03:07:03;;;;;;;0.10;0.10;;;;;;;;;;5069996;28;20396;-60
2022/05/18 03:09:28;;;;;;;0.13;0.13;;;;;;;;;;5035966;28;20036;-60
2022/05/18 03:11:55;;;;;;;0.10;0.10;;;;;;;;;;5070311;28;20024;-60
2022/05/18 03:14:20;;;;;;;0.10;0.10;;;;;;;;;;5069838;28;20073;-60
2022/05/18 03:16:46;;;;;;;0.10;0.10;;;;;;;;;;5069409;28;20114;-61
2022/05/18 03:19:12;;;;;;;0.10;0.10;;;;;;;;;;5068486;28;20522;-60
2022/05/18 03:24:23;;;;;;;0.10;0.10;;;;;;;;;;5069728;28;20032;-62
2022/05/18 03:26:48;;;;;;;0.13;0.13;;;;;;;;;;5069852;28;20060;-60
2022/05/18 03:29:14;;;;;;;0.10;0.10;;;;;;;;;;5070046;28;20075;-61
2022/05/18 03:31:40;;;;;;;0.20;0.20;;;;;;;;;;5069790;28;20020;-62
2022/05/18 03:34:07;;;;;;;0.10;0.10;;;;;;;;;;5051994;28;20048;-60
2022/05/18 03:36:34;;;;;;;0.10;0.10;;;;;;;;;;5035399;28;20045;-60
2022/05/18 03:39:01;;;;;;;0.10;0.10;;;;;;;;;;5035079;28;20094;-60
2022/05/18 03:41:26;;;;;;;0.32;0.32;;;;;;;;;;5035439;28;20108;-60
2022/05/18 03:43:52;;;;;;;0.00;0.00;;;;;;;;;;5068199;28;20510;-60
2022/05/18 03:46:18;;;;;;;0.10;0.10;;;;;;;;;;5069391;28;20043;-60
2022/05/18 03:48:44;;;;;;;0.10;0.10;;;;;;;;;;5051201;28;20037;-61
2022/05/18 03:51:12;;;;;;;0.10;0.10;;;;;;;;;;5068346;28;20476;-61
2022/05/18 03:53:37;;;;;;;0.20;0.20;;;;;;;;;;5051488;28;20028;-60
2022/05/18 03:56:04;;;;;;;0.10;0.10;;;;;;;;;;5069539;28;20032;-59
2022/05/18 03:58:29;;;;;;;0.30;0.30;;;;;;;;;;5034540;28;20073;-61
2022/05/18 04:00:56;;;;;;;0.10;0.10;;;;;;;;;;5068549;28;20440;-65
2022/05/18 04:03:24;;;;;;;0.10;0.10;;;;;;;;;;5034848;28;20206;-60
2022/05/18 04:05:50;;;;;;;0.10;0.10;;;;;;;;;;5034973;28;20043;-60
2022/05/18 04:08:16;;;;;;;0.10;0.10;;;;;;;;;;5034724;28;20132;-60
2022/05/18 04:10:41;;;;;;;0.10;0.10;;;;;;;;;;5051467;28;20123;-59
2022/05/18 04:13:10;;;;;;;0.10;0.10;;;;;;;;;;5069231;28;20028;-61
2022/05/18 04:15:36;;;;;;;0.20;0.20;;;;;;;;;;5069538;28;20035;-59
2022/05/18 04:18:02;;;;;;;0.10;0.10;;;;;;;;;;5068939;28;20020;-60
2022/05/18 04:20:28;;;;;;;0.10;0.10;;;;;;;;;;5050370;28;20044;-59
2022/05/18 04:22:53;;;;;;;0.10;0.10;;;;;;;;;;5069106;28;20034;-59
2022/05/18 04:25:20;;;;;;;0.20;0.20;;;;;;;;;;5069181;28;20511;-60
2022/05/18 04:27:49;;;;;;;0.10;0.10;;;;;;;;;;5033396;28;20107;-60
2022/05/18 04:30:15;;;;;;;0.10;0.10;;;;;;;;;;5069162;28;20381;-62
2022/05/18 04:32:40;;;;;;;0.10;0.10;;;;;;;;;;5034701;28;20021;-60
2022/05/18 04:35:08;;;;;;;0.17;0.17;;;;;;;;;;5033868;28;20089;-60
2022/05/18 04:37:34;;;;;;;0.10;0.10;;;;;;;;;;5033904;28;21054;-59
2022/05/18 04:39:59;;;;;;;0.10;0.10;;;;;;;;;;5038902;28;20127;-60
2022/05/18 04:42:25;;;;;;;0.20;0.20;;;;;;;;;;5050546;28;20147;-60
2022/05/18 04:44:50;;;;;;;0.10;0.10;;;;;;;;;;5069200;28;20043;-60
2022/05/18 04:47:16;;;;;;;0.35;0.35;;;;;;;;;;5030311;28;20116;-60
2022/05/18 04:49:42;;;;;;;0.13;0.13;;;;;;;;;;5047526;28;20047;-61
2022/05/18 04:52:07;;;;;;;0.10;0.10;;;;;;;;;;5047561;28;20035;-60
2022/05/18 04:54:34;;;;;;;0.10;0.10;;;;;;;;;;5048495;28;20602;-62
2022/05/18 04:56:59;;;;;;;0.10;0.10;;;;;;;;;;5066028;28;20025;-60
2022/05/18 04:59:25;;;;;;;0.20;0.20;;;;;;;;;;5067211;28;20514;-60
2022/05/18 05:01:50;;;;;;;0.10;0.10;;;;;;;;;;5067479;28;20096;-62
2022/05/18 05:04:16;;;;;;;0.20;0.20;;;;;;;;;;5067410;28;20040;-61
2022/05/18 05:06:43;;;;;;;0.10;0.10;;;;;;;;;;5069074;28;20516;-60
2022/05/18 05:09:09;;;;;;;0.20;0.20;;;;;;;;;;5050882;28;20118;-64
2022/05/18 05:11:34;;;;;;;0.20;0.20;;;;;;;;;;5050394;28;20032;-60
2022/05/18 05:14:00;;;;;;;0.20;0.20;;;;;;;;;;5066996;28;20032;-59
2022/05/18 05:16:29;;;;;;;0.20;0.20;;;;;;;;;;5068046;28;20064;-60
2022/05/18 05:18:55;;;;;;;0.20;0.20;;;;;;;;;;5050747;28;20118;-64
2022/05/18 05:21:21;;;;;;;0.17;0.17;;;;;;;;;;5067162;28;20017;-59
2022/05/18 05:23:46;;;;;;;0.20;0.20;;;;;;;;;;5068254;28;20468;-60
2022/05/18 05:26:12;;;;;;;0.13;0.13;;;;;;;;;;5050311;28;20032;-60
2022/05/18 05:28:38;;;;;;;0.20;0.20;;;;;;;;;;5067978;28;20407;-60
2022/05/18 05:31:05;;;;;;;0.20;0.20;;;;;;;;;;5067925;28;20037;-61
2022/05/18 05:33:33;;;;;;;0.20;0.20;;;;;;;;;;5050446;28;20071;-60
2022/05/18 05:35:58;;;;;;;0.20;0.20;;;;;;;;;;5068339;28;20029;-60
2022/05/18 05:38:24;;;;;;;0.20;0.20;;;;;;;;;;5067093;28;20044;-59
2022/05/18 05:40:49;;;;;;;0.20;0.20;;;;;;;;;;5068222;28;20916;-60
2022/05/18 05:43:15;;;;;;;0.20;0.20;;;;;;;;;;5067933;28;20493;-59
2022/05/18 05:45:40;;;;;;;0.10;0.10;;;;;;;;;;5046558;28;20082;-60
2022/05/18 05:48:07;;;;;;;0.17;0.17;;;;;;;;;;5067126;28;20463;-64
2022/05/18 05:50:32;;;;;;;0.20;0.20;;;;;;;;;;5029712;28;20029;-60
2022/05/18 05:52:59;;;;;;;0.10;0.10;;;;;;;;;;5067099;28;20047;-59
2022/05/18 05:55:25;;;;;;;0.30;0.30;;;;;;;;;;5034034;28;20094;-59
2022/05/18 05:57:54;;;;;;;0.10;0.10;;;;;;;;;;5030656;28;20029;-61
2022/05/18 06:00:20;;;;;;;0.20;0.20;;;;;;;;;;5049326;28;20033;-60
2022/05/18 06:02:46;;;;;;;0.30;0.30;;;;;;;;;;5063336;28;20044;-61
2022/05/18 06:05:12;;;;;;;0.30;0.30;;;;;;;;;;5049378;28;20059;-59
2022/05/18 06:07:38;;;;;;;0.30;0.30;;;;;;;;;;5032534;28;20032;-61
2022/05/18 06:10:03;;;;;;;0.22;0.22;;;;;;;;;;5067681;28;20037;-60
2022/05/18 06:12:29;;;;;;;0.20;0.20;;;;;;;;;;5067162;28;20043;-59
2022/05/18 06:14:57;;;;;;;0.30;0.30;;;;;;;;;;5066783;28;20043;-61
2022/05/18 06:17:22;;;;;;;0.20;0.20;;;;;;;;;;5048327;28;20028;-60
2022/05/18 06:19:48;;;;;;;0.30;0.30;;;;;;;;;;5067381;28;20032;-60
2022/05/18 06:22:13;;;;;;;0.50;0.50;;;;;;;;;;5066873;28;20120;-60
2022/05/18 06:24:40;;;;;;;0.30;0.30;;;;;;;;;;5065891;28;20116;-61
2022/05/18 06:27:06;;;;;;;0.20;0.20;;;;;;;;;;5046888;28;20043;-62
2022/05/18 06:29:32;;;;;;;0.20;0.20;;;;;;;;;;5046654;28;20245;-60
2022/05/18 06:31:58;;;;;;;0.30;0.30;;;;;;;;;;5045949;28;20040;-60
2022/05/18 06:34:23;;;;;;;0.20;0.20;;;;;;;;;;5047091;28;20119;-61
2022/05/18 06:36:49;;;;;;;0.25;0.25;;;;;;;;;;5031240;28;20119;-61
2022/05/18 06:39:18;;;;;;;0.40;0.40;;;;;;;;;;5063980;28;20413;-60
2022/05/18 06:41:45;;;;;;;0.20;0.20;;;;;;;;;;5048493;28;20059;-64
2022/05/18 06:44:11;;;;;;;0.32;0.32;;;;;;;;;;5035700;28;20492;-61
2022/05/18 06:46:38;;;;;;;0.77;0.77;;;;;;;;;;5048061;28;20060;-60
2022/05/18 06:49:05;;;;;;;0.30;0.30;;;;;;;;;;5046016;28;20115;-62
2022/05/18 06:51:34;;;;;;;0.20;0.20;;;;;;;;;;5069702;28;20044;-59
2022/05/18 06:53:59;;;;;;;0.95;0.77;;;;;;;;;;5051589;28;20040;-60
2022/05/18 06:56:26;;;;;;;0.20;0.20;;;;;;;;;;5047384;28;20048;-60
2022/05/18 06:58:52;;;;;;;0.20;0.20;;;;;;;;;;5036230;28;20025;-61
2022/05/18 07:01:18;;;;;;;4.60;2.00;;;;;;;;;;5072241;28;20036;-61
2022/05/18 07:03:44;;;;;;;0.30;0.30;;;;;;;;;;5059227;28;20464;-60
2022/05/18 07:06:10;;;;;;;0.20;0.20;;;;;;;;;;5031828;28;20071;-60
2022/05/18 07:08:36;;;;;;;0.47;0.47;;;;;;;;;;5066760;28;20064;-62
2022/05/18 07:11:03;;;;;;;0.20;0.20;;;;;;;;;;5065495;28;20082;-61
2022/05/18 07:13:29;;;;;;;0.43;0.43;;;;;;;;;;5024493;28;20051;-64
2022/05/18 07:15:55;;;;;;;0.20;0.20;;;;;;;;;;5038535;28;20081;-64
2022/05/18 07:18:25;;;;;;;0.30;0.30;;;;;;;;;;5059138;28;20396;-61
2022/05/18 07:20:50;;;;;;;0.17;0.17;;;;;;;;;;5041817;28;20031;-60
2022/05/18 07:23:16;;;;;;;0.20;0.20;;;;;;;;;;5040162;28;20044;-61
2022/05/18 07:25:42;;;;;;;0.30;0.30;;;;;;;;;;5062834;28;20032;-60
2022/05/18 07:28:09;;;;;;;0.20;0.20;;;;;;;;;;5065321;28;20056;-61
2022/05/18 07:30:34;;;;;;;0.22;0.22;;;;;;;;;;5066650;28;20078;-63
2022/05/18 07:33:00;;;;;;;0.30;0.30;;;;;;;;;;5065831;28;20040;-60
2022/05/18 07:35:25;;;;;;;0.20;0.20;;;;;;;;;;5073173;28;20032;-60
2022/05/18 07:37:51;;;;;;;0.20;0.20;;;;;;;;;;5078764;28;20032;-61
2022/05/18 07:40:16;;;;;;;0.30;0.30;;;;;;;;;;5072618;28;20036;-60
2022/05/18 07:42:42;;;;;;;0.30;0.30;;;;;;;;;;5051759;28;20086;-60
2022/05/18 07:45:08;;;;;;;0.20;0.20;;;;;;;;;;5067921;28;20032;-64
2022/05/18 07:47:34;;;;;;;0.30;0.30;;;;;;;;;;5057281;28;20542;-60
2022/05/18 07:50:00;;;;;;;0.20;0.20;;;;;;;;;;5028154;28;20036;-60
2022/05/18 07:52:26;;;;;;;0.20;0.20;;;;;;;;;;5040065;28;20021;-62
2022/05/18 07:54:52;;;;;;;0.20;0.20;;;;;;;;;;5056831;28;20075;-65
2022/05/18 07:57:17;;;;;;;0.20;0.20;;;;;;;;;;5058430;28;20836;-60
2022/05/18 07:59:43;;;;;;;0.38;0.38;;;;;;;;;;5062599;28;20043;-61
2022/05/18 08:02:09;;;;;;;0.20;0.20;;;;;;;;;;5048522;28;20036;-62
2022/05/18 08:04:34;;;;;;;0.20;0.20;;;;;;;;;;5068595;28;20273;-60
2022/05/18 08:07:00;;;;;;;0.20;0.20;;;;;;;;;;5067345;28;20547;-60
2022/05/18 08:09:26;;;;;;;0.20;0.20;;;;;;;;;;5049920;28;20041;-60
2022/05/18 08:17:20;;;;;;;0.20;0.20;;;;;;;;;;5059097;28;20021;-60
2022/05/18 08:19:46;;;;;;;0.20;0.20;;;;;;;;;;5057422;28;20047;-61
2022/05/18 08:22:12;;;;;;;0.22;0.22;;;;;;;;;;5059168;28;20103;-64
2022/05/18 08:24:37;;;;;;;0.20;0.20;;;;;;;;;;5058585;28;20130;-60
2022/05/18 08:27:04;;;;;;;0.28;0.28;;;;;;;;;;5049254;28;20070;-60
2022/05/18 08:29:29;;;;;;;0.20;0.20;;;;;;;;;;5049234;28;20043;-60
2022/05/18 08:31:56;;;;;;;0.20;0.20;;;;;;;;;;5066578;28;20120;-66
2022/05/18 08:34:22;;;;;;;0.20;0.20;;;;;;;;;;5049028;28;20052;-63
2022/05/18 08:36:49;;;;;;;0.20;0.20;;;;;;;;;;5039519;28;20025;-59
2022/05/18 08:39:14;;;;;;;0.20;0.20;;;;;;;;;;5031259;28;20467;-62
2022/05/18 08:41:42;;;;;;;0.20;0.20;;;;;;;;;;5049613;28;20086;-65
2022/05/18 08:44:08;;;;;;;0.20;0.20;;;;;;;;;;5046735;28;20036;-61
2022/05/18 08:46:50;;;;;;;0.20;0.20;;;;;;;;;;5050176;28;20119;-61
2022/05/18 08:49:33;;;;;;;0.20;0.20;;;;;;;;;;5032481;28;20271;-60
2022/05/18 08:52:17;;;;;;;0.20;0.20;;;;;;;;;;5027119;28;20033;-60
2022/05/18 08:54:54;;;;;;;0.20;0.20;;;;;;;;;;5065623;28;20035;-61
2022/05/18 08:57:21;;;;;;;0.17;0.17;;;;;;;;;;5067617;28;20045;-61
2022/05/18 08:59:51;;;;;;;0.20;0.20;;;;;;;;;;5049651;28;20025;-61
2022/05/18 09:02:18;;;;;;;0.20;0.20;;;;;;;;;;5067854;28;20480;-62
2022/05/18 09:04:56;;;;;;;0.90;0.77;;;;;;;;;;5033168;28;20064;-61
2022/05/18 09:07:24;;;;;;;0.20;0.20;;;;;;;;;;5034186;28;20079;-66
2022/05/18 09:12:34;;;;;;;0.40;0.40;;;;;;;;;;5068301;28;20029;-61
2022/05/18 09:15:01;;;;;;;0.20;0.20;;;;;;;;;;5067693;28;20081;-62
2022/05/18 09:17:35;;;;;;;0.30;0.30;;;;;;;;;;5066291;28;20036;-64
2022/05/18 09:20:01;;;;;;;0.20;0.20;;;;;;;;;;5066394;28;20388;-64
2022/05/18 09:22:26;;;;;;;0.20;0.20;;;;;;;;;;5065756;28;20033;-63
2022/05/18 09:24:59;;;;;;;0.65;0.63;;;;;;;;;;5066277;28;20069;-64
2022/05/18 09:27:28;;;;;;;0.25;0.25;;;;;;;;;;5048659;28;20032;-64
2022/05/18 09:30:02;;;;;;;0.20;0.20;;;;;;;;;;5032332;28;20024;-64
2022/05/18 09:32:42;;;;;;;0.20;0.20;;;;;;;;;;5034555;28;20044;-62
2022/05/18 09:35:21;;;;;;;0.30;0.30;;;;;;;;;;5033908;28;20112;-62
2022/05/18 09:37:51;;;;;;;0.40;0.40;;;;;;;;;;5033554;28;20036;-62
2022/05/18 09:40:16;;;;;;;0.20;0.20;;;;;;;;;;5031688;28;20831;-61
2022/05/18 09:42:47;;;;;;;0.40;0.40;;;;;;;;;;5067701;28;20048;-63
2022/05/18 09:45:18;;;;;;;0.30;0.30;;;;;;;;;;5050062;28;20077;-62
2022/05/18 09:47:51;;;;;;;0.40;0.40;;;;;;;;;;5047872;28;20049;-61
2022/05/18 09:50:17;;;;;;;0.45;0.45;;;;;;;;;;5049233;28;20060;-62
2022/05/18 09:52:43;;;;;;;0.30;0.30;;;;;;;;;;5048237;28;20055;-63
2022/05/18 09:55:11;;;;;;;0.20;0.20;;;;;;;;;;5033138;28;20106;-62
2022/05/18 09:57:36;;;;;;;0.28;0.28;;;;;;;;;;5049617;28;20036;-63
2022/05/18 10:00:05;;;;;;;0.30;0.30;;;;;;;;;;5055720;28;20033;-62
2022/05/18 10:08:11;;;;;;;4.15;2.50;;;;;;;;;;5066791;28;20044;-63
2022/05/18 10:10:38;;;;;;;0.30;0.30;;;;;;;;;;5032254;28;20032;-67
2022/05/18 10:13:09;;;;;;;0.80;0.63;;;;;;;;;;5049282;28;20463;-63
2022/05/18 10:15:38;;;;;;;0.40;0.40;;;;;;;;;;5066189;28;20033;-62
2022/05/18 10:18:16;;;;;;;0.30;0.30;;;;;;;;;;5041304;28;20033;-63
2022/05/18 10:20:41;;;;;;;0.45;0.45;;;;;;;;;;5019528;28;20029;-63
2022/05/18 10:23:25;;;;;;;0.32;0.32;;;;;;;;;;5036790;28;20043;-65
2022/05/18 10:25:51;;;;;;;0.60;0.60;;;;;;;;;;5057210;28;20392;-64
2022/05/18 10:28:21;;;;;;;0.30;0.30;;;;;;;;;;5048765;28;20068;-63
2022/05/18 10:31:07;;;;;;;0.20;0.20;;;;;;;;;;5068873;28;20028;-62
2022/05/18 10:33:35;;;;;;;1.65;1.33;;;;;;;;;;5069737;28;20143;-62
2022/05/18 10:36:29;;;;;;;0.90;0.70;;;;;;;;;;5035519;28;20035;-63
2022/05/18 10:38:56;;;;;;;2.33;1.60;;;;;;;;;;5051492;28;20056;-63
2022/05/18 10:41:26;;;;;;;15.05;2.67;;;;;;;;;;5035235;28;20056;-62
2022/05/18 10:44:01;;;;;;;1.67;1.10;;;;;;;;;;5052392;28;20063;-63
2022/05/18 10:46:29;;;;;;;3.80;2.00;;;;;;;;;;5052031;28;20551;-63
2022/05/18 10:48:57;;;;;;;0.35;0.35;;;;;;;;;;5069922;28;20128;-64
2022/05/18 10:51:39;;;;;;;0.45;0.45;;;;;;;;;;5070038;28;20048;-63
2022/05/18 10:54:11;;;;;;;0.85;0.73;;;;;;;;;;5052052;28;20111;-63
2022/05/18 10:56:37;;;;;;;2.60;1.45;;;;;;;;;;5049260;28;20162;-65
2022/05/18 10:59:21;;;;;;;5.07;2.42;;;;;;;;;;5046804;28;20033;-63
2022/05/18 11:02:13;;;;;;;0.38;0.38;;;;;;;;;;5048307;28;20095;-65
2022/05/18 11:04:52;;;;;;;4.78;1.58;;;;;;;;;;5061609;28;20050;-64
2022/05/18 11:07:21;;;;;;;0.40;0.40;;;;;;;;;;5070234;28;20051;-64
2022/05/18 11:09:47;;;;;;;5.05;1.60;;;;;;;;;;5051651;28;20040;-64
2022/05/18 11:12:22;;;;;;;1.00;1.00;;;;;;;;;;5051202;28;20033;-64
2022/05/18 11:14:59;;;;;;;2.75;0.63;;;;;;;;;;5069594;28;20028;-65
2022/05/18 11:17:36;;;;;;;0.40;0.40;;;;;;;;;;5035190;28;20039;-64
2022/05/18 11:20:11;;;;;;;0.80;0.80;;;;;;;;;;5069663;28;20424;-64
2022/05/18 11:22:36;;;;;;;1.02;0.90;;;;;;;;;;5069636;28;20031;-65
2022/05/18 11:25:21;;;;;;;0.93;0.90;;;;;;;;;;5068275;28;20036;-65
2022/05/18 11:27:51;;;;;;;0.85;0.85;;;;;;;;;;5054009;28;20044;-64
2022/05/18 11:30:18;;;;;;;1.13;0.82;;;;;;;;;;5038849;28;20930;-64
2022/05/18 11:33:03;;;;;;;0.73;0.73;;;;;;;;;;5025765;28;20028;-63
2022/05/18 11:35:39;;;;;;;0.65;0.65;;;;;;;;;;5053431;28;20481;-64
2022/05/18 11:38:10;;;;;;;0.70;0.70;;;;;;;;;;5068287;28;20396;-63
2022/05/18 11:40:46;;;;;;;0.45;0.45;;;;;;;;;;5068131;28;20032;-64
2022/05/18 11:43:30;;;;;;;1.15;1.13;;;;;;;;;;5067477;28;20032;-66
2022/05/18 11:46:08;;;;;;;1.02;1.00;;;;;;;;;;5068474;28;20048;-64
2022/05/18 11:48:36;;;;;;;0.65;0.65;;;;;;;;;;5069105;28;20033;-64
2022/05/18 11:51:22;;;;;;;1.33;1.23;;;;;;;;;;5061357;28;20111;-65
2022/05/18 11:53:49;;;;;;;0.65;0.65;;;;;;;;;;5053583;28;20114;-62
2022/05/18 11:56:15;;;;;;;2.28;0.88;;;;;;;;;;5034404;28;20056;-64
2022/05/18 11:59:11;;;;;;;0.65;0.65;;;;;;;;;;5045891;28;20543;-64
2022/05/18 12:01:42;;;;;;;5.22;1.10;;;;;;;;;;4994043;28;20056;-63
2022/05/18 12:04:25;;;;;;;0.70;0.70;;;;;;;;;;5063647;28;20163;-64
2022/05/18 12:07:09;;;;;;;0.95;0.90;;;;;;;;;;5034174;28;20043;-64
2022/05/18 12:09:41;;;;;;;0.80;0.80;;;;;;;;;;5069055;28;20037;-64
2022/05/18 12:12:09;;;;;;;1.67;1.58;;;;;;;;;;5068893;28;20060;-66
2022/05/18 12:14:41;;;;;;;0.57;0.57;;;;;;;;;;5068790;28;20047;-64
2022/05/18 12:17:12;;;;;;;0.75;0.75;;;;;;;;;;5068248;28;20024;-66
2022/05/18 12:19:45;;;;;;;3.83;1.58;;;;;;;;;;5043654;28;20040;-65
2022/05/18 12:22:13;;;;;;;0.70;0.70;;;;;;;;;;5050653;28;20028;-63
2022/05/18 12:24:40;;;;;;;1.15;0.93;;;;;;;;;;5050698;28;20045;-64
2022/05/18 12:27:06;;;;;;;0.90;0.85;;;;;;;;;;5033033;28;20488;-64
2022/05/18 12:29:32;;;;;;;0.60;0.60;;;;;;;;;;5030205;28;20444;-65
2022/05/18 12:31:58;;;;;;;1.77;1.15;;;;;;;;;;5028691;28;20037;-64
2022/05/18 12:34:25;;;;;;;0.75;0.75;;;;;;;;;;5066440;28;20055;-64
2022/05/18 12:37:01;;;;;;;0.95;0.88;;;;;;;;;;5066452;28;20549;-64
2022/05/18 12:39:29;;;;;;;2.15;0.70;;;;;;;;;;5066877;28;20040;-64
2022/05/18 12:41:56;;;;;;;2.30;1.13;;;;;;;;;;5066457;28;20138;-64
2022/05/18 12:44:23;;;;;;;3.45;2.25;;;;;;;;;;5048703;28;20032;-66
2022/05/18 12:46:59;;;;;;;1.13;1.13;;;;;;;;;;5066525;28;20032;-64
2022/05/18 12:49:30;;;;;;;2.25;1.98;;;;;;;;;;5067288;28;20037;-65
2022/05/18 12:52:03;;;;;;;1.80;0.77;;;;;;;;;;5080786;28;20465;-64
2022/05/18 12:54:42;;;;;;;0.77;0.77;;;;;;;;;;5053053;28;20127;-65
2022/05/18 12:57:11;;;;;;;0.52;0.52;;;;;;;;;;5035563;28;20103;-63
2022/05/18 12:59:57;;;;;;;0.43;0.43;;;;;;;;;;5051020;28;20415;-66
2022/05/18 13:02:41;;;;;;;0.50;0.50;;;;;;;;;;5041039;28;20044;-63
2022/05/18 13:05:26;;;;;;;3.33;1.55;;;;;;;;;;5033522;28;20502;-61
2022/05/18 13:07:52;;;;;;;3.95;2.10;;;;;;;;;;5031852;28;20115;-63
2022/05/18 13:10:22;;;;;;;5.35;1.42;;;;;;;;;;5068643;28;20029;-64
2022/05/18 13:12:56;;;;;;;3.72;1.83;;;;;;;;;;5050056;28;20032;-64
2022/05/18 13:15:49;;;;;;;2.58;1.60;;;;;;;;;;5033567;28;20357;-61
2022/05/18 13:18:25;;;;;;;0.73;0.73;;;;;;;;;;5049391;28;20579;-63
2022/05/18 13:20:59;;;;;;;0.60;0.60;;;;;;;;;;5049914;28;20035;-67
2022/05/18 13:23:28;;;;;;;3.35;1.58;;;;;;;;;;5027736;28;20090;-65
2022/05/18 13:26:02;;;;;;;0.88;0.68;;;;;;;;;;5051524;28;20032;-65
2022/05/18 13:28:30;;;;;;;0.50;0.50;;;;;;;;;;5056252;28;20037;-65
2022/05/18 13:30:58;;;;;;;0.50;0.50;;;;;;;;;;5014040;28;20037;-64
2022/05/18 13:33:24;;;;;;;0.75;0.65;;;;;;;;;;5047558;28;20040;-66
2022/05/18 13:35:49;;;;;;;0.52;0.52;;;;;;;;;;5033340;28;20036;-67
2022/05/18 13:38:20;;;;;;;0.65;0.60;;;;;;;;;;5067723;28;20171;-67
2022/05/18 13:40:47;;;;;;;2.90;1.33;;;;;;;;;;5033507;28;20066;-64
2022/05/18 13:43:14;;;;;;;1.85;0.68;;;;;;;;;;5066769;28;20538;-65
2022/05/18 13:45:43;;;;;;;0.20;0.20;;;;;;;;;;5050031;28;20086;-66
2022/05/18 13:48:09;;;;;;;4.43;1.83;;;;;;;;;;5049825;28;20794;-67
2022/05/18 13:50:55;;;;;;;0.63;0.60;;;;;;;;;;5050250;28;20033;-67
2022/05/18 13:53:32;;;;;;;0.63;0.40;;;;;;;;;;5043872;28;20047;-67
2022/05/18 13:56:02;;;;;;;0.50;0.50;;;;;;;;;;5067104;28;20503;-67
2022/05/18 13:58:28;;;;;;;0.68;0.55;;;;;;;;;;5048676;28;20043;-67
2022/05/18 14:01:01;;;;;;;3.63;2.15;;;;;;;;;;5049471;28;20032;-67
2022/05/18 14:03:32;;;;;;;0.75;0.75;;;;;;;;;;5066346;28;20493;-66
2022/05/18 14:06:02;;;;;;;0.50;0.50;;;;;;;;;;5026607;28;20025;-68
2022/05/18 14:08:33;;;;;;;0.70;0.70;;;;;;;;;;5063041;28;20068;-69
2022/05/18 14:11:03;;;;;;;3.67;1.55;;;;;;;;;;5066259;28;20032;-66
2022/05/18 14:13:29;;;;;;;2.25;1.50;;;;;;;;;;5048287;28;20039;-66
2022/05/18 14:15:56;;;;;;;1.10;1.00;;;;;;;;;;5062857;28;20033;-67
2022/05/18 14:18:26;;;;;;;8.45;2.40;;;;;;;;;;5059030;28;20032;-69
2022/05/18 14:20:53;;;;;;;3.40;1.60;;;;;;;;;;5049317;28;20043;-66
2022/05/18 14:23:44;;;;;;;2.80;1.92;;;;;;;;;;5064989;28;20041;-65
2022/05/18 14:26:12;;;;;;;1.90;1.00;;;;;;;;;;5030716;28;20045;-64
2022/05/18 14:28:41;;;;;;;2.53;0.88;;;;;;;;;;5030739;28;20224;-65
2022/05/18 14:31:07;;;;;;;0.57;0.57;;;;;;;;;;5030989;28;20434;-69
2022/05/18 14:33:33;;;;;;;0.50;0.50;;;;;;;;;;5047851;28;20076;-68
2022/05/18 14:36:02;;;;;;;0.73;0.70;;;;;;;;;;5065875;28;20121;-65
2022/05/18 14:38:27;;;;;;;;;;;;;;;;;;5067676;28;20112;-65
2022/05/18 14:40:53;;;;;;;0.50;0.50;;;;;;;;;;5067145;28;20015;-66
2022/05/18 14:43:21;;;;;;;3.70;1.58;;;;;;;;;;5032436;28;20098;-64
2022/05/18 14:45:48;;;;;;;1.05;0.80;;;;;;;;;;5032816;28;20040;-63
2022/05/18 14:48:27;;;;;;;0.98;0.98;;;;;;;;;;5032498;28;20032;-63
2022/05/18 14:51:13;;;;;;;1.58;1.17;;;;;;;;;;5066774;28;20161;-63
2022/05/18 14:53:47;;;;;;;4.93;1.63;;;;;;;;;;5066991;28;20158;-65
2022/05/18 14:56:13;;;;;;;1.35;1.08;;;;;;;;;;5067101;28;20414;-64
2022/05/18 14:58:38;;;;;;;6.53;5.10;;;;;;;;;;5066995;28;20099;-64
2022/05/18 15:01:05;;;;;;;0.50;0.50;;;;;;;;;;5067078;28;20396;-67
2022/05/18 15:03:32;;;;;;;2.08;1.73;;;;;;;;;;5049381;28;20094;-64
2022/05/18 15:05:58;;;;;;;1.10;0.88;;;;;;;;;;5048772;28;20040;-65
2022/05/18 15:08:30;;;;;;;0.40;0.40;;;;;;;;;;5032449;28;20392;-66
2022/05/18 15:10:59;;;;;;;0.30;0.30;;;;;;;;;;5050123;28;20123;-67